KAID/AID METAR and TAF weather

Enter ICAO airport designator
Station Type Date Time Source
KAID METAR 2019/06/26 19:59 UTC NOAA

KAID 261959Z 22003KT 10SM SCT050 30/18 A3012


Station Type Date Time Source
KAID Decoded METAR 2019/06/26 19:59 UTC NOAA

Anderson Municipal, IN, United States (KAID) 40-07N 085-37W
Jun 26, 2019 - 03:59 PM EDT / 2019.06.26 1959 UTC
Wind: from the SW (220 degrees) at 3 MPH (3 KT):0
Visibility: 10 mile(s):0
Sky conditions: partly cloudy
Temperature: 86 F (30 C)
Dew Point: 64 F (18 C)
Relative Humidity: 48%
Pressure (altimeter): 30.12 in. Hg (1019 hPa)
ob: KAID 261959Z 22003KT 10SM SCT050 30/18 A3012
cycle: 20

Station Type Date Time Source
KAID TAF UTC NOAA

Error!

Example: see airport list